Time;durP1;ratioP1;P1;durP2;ratioP2;P2;SDS_P1;SDS_P2;PMS_P1;PMS_P2;Temp;Humidity;BMP_temperature;BMP_pressure;BME280_temperature;BME280_humidity;BME280_pressure;Samples;Min_cycle;Max_cycle;Signal;HPM_P1;HPM_P2
2022/09/11 00:01:02;;;;;;;10.00;9.00;;;;;;;14.24;97.08;100754.20;108021;1276;74122;-81
2022/09/11 00:03:33;;;;;;;10.60;8.90;;;;;;;14.24;97.16;100755.05;107899;1277;62316;-82
2022/09/11 00:06:06;;;;;;;13.10;9.60;;;;;;;14.24;97.30;100756.33;107991;1276;61094;-82
2022/09/11 00:08:34;;;;;;;12.40;9.50;;;;;;;14.23;97.86;100759.31;107893;1277;74829;-82
2022/09/11 00:11:15;;;;;;;12.80;9.60;;;;;;;14.21;97.91;100763.29;108077;1276;70123;-82
2022/09/11 00:13:47;;;;;;;15.10;10.90;;;;;;;14.18;98.17;100765.02;108025;1276;73401;-83
2022/09/11 00:16:20;;;;;;;12.10;9.90;;;;;;;14.18;98.35;100767.86;107845;1277;63747;-82
2022/09/11 00:18:48;;;;;;;11.10;9.70;;;;;;;14.17;98.48;100768.84;107945;1277;60655;-83
2022/09/11 00:21:15;;;;;;;11.50;10.10;;;;;;;14.17;98.55;100768.30;108233;1276;72880;-83
2022/09/11 00:23:43;;;;;;;11.30;10.10;;;;;;;14.17;98.57;100769.33;108254;1275;72419;-83
2022/09/11 00:26:09;;;;;;;11.20;10.00;;;;;;;14.17;98.66;100773.93;108264;1276;73498;-82
2022/09/11 00:28:37;;;;;;;10.80;9.70;;;;;;;14.17;98.63;100773.52;107931;1276;63620;-82
2022/09/11 00:31:11;;;;;;;11.30;10.10;;;;;;;14.16;98.85;100773.92;107962;1276;62439;-82
2022/09/11 00:33:39;;;;;;;11.50;10.20;;;;;;;14.17;98.85;100776.44;107988;1276;73318;-83
2022/09/11 00:36:14;;;;;;;11.60;9.90;;;;;;;14.18;98.94;100775.70;107916;1277;71371;-80
2022/09/11 00:38:41;;;;;;;11.50;10.00;;;;;;;14.17;98.91;100772.03;107983;1277;73598;-80
2022/09/11 00:41:21;;;;;;;10.20;9.20;;;;;;;14.17;98.85;100768.88;107788;1277;62559;-81
2022/09/11 00:43:59;;;;;;;11.40;10.20;;;;;;;14.17;99.01;100772.86;107943;1276;59476;-80
2022/09/11 00:46:30;;;;;;;12.40;9.80;;;;;;;14.19;98.91;100774.30;107961;1276;75483;-81
2022/09/11 00:48:59;;;;;;;10.60;9.50;;;;;;;14.20;98.97;100775.77;107884;1277;72011;-81
2022/09/11 00:51:32;;;;;;;11.30;9.80;;;;;;;14.20;98.75;100772.31;107912;1276;72741;-81
2022/09/11 00:54:01;;;;;;;12.00;9.90;;;;;;;14.20;98.80;100771.13;108337;1276;62854;-81
2022/09/11 00:56:30;;;;;;;13.50;10.50;;;;;;;14.22;99.02;100777.75;108079;1276;61746;-81
2022/09/11 00:58:58;;;;;;;12.90;10.80;;;;;;;14.22;99.16;100776.92;108091;1277;74180;-81
2022/09/11 01:01:25;;;;;;;12.00;10.60;;;;;;;14.22;99.49;100775.11;108050;1276;71377;-81
2022/09/11 01:03:52;;;;;;;13.00;11.10;;;;;;;14.23;99.50;100771.92;107946;1277;75942;-81
2022/09/11 01:06:19;;;;;;;12.40;11.10;;;;;;;14.25;99.44;100776.48;108046;1276;60970;-81
2022/09/11 01:08:46;;;;;;;12.10;10.70;;;;;;;14.27;99.69;100779.13;108169;1276;61325;-82
2022/09/11 01:11:46;;;;;;;13.80;11.60;;;;;;;14.28;99.60;100777.39;107728;1276;74830;-81
2022/09/11 01:14:13;;;;;;;13.70;11.10;;;;;;;14.28;99.50;100773.76;108009;1277;71264;-81
2022/09/11 01:16:52;;;;;;;13.40;10.90;;;;;;;14.28;99.59;100772.69;108129;1276;74081;-81
2022/09/11 01:19:49;;;;;;;12.50;11.20;;;;;;;14.30;99.53;100775.52;107965;1277;62027;-81
2022/09/11 01:22:34;;;;;;;14.30;11.50;;;;;;;14.33;99.43;100773.45;108281;1275;61649;-81
2022/09/11 01:25:35;;;;;;;14.50;11.50;;;;;;;14.34;99.59;100776.15;108238;1276;75603;-81
2022/09/11 01:28:14;;;;;;;13.50;11.20;;;;;;;14.32;99.68;100782.17;108029;1277;71532;-81
2022/09/11 01:30:46;;;;;;;13.80;11.50;;;;;;;14.31;99.93;100781.52;108194;1276;73205;-81
2022/09/11 01:33:41;;;;;;;13.40;11.40;;;;;;;14.31;99.84;100780.49;108035;1276;64259;-81
2022/09/11 01:36:20;;;;;;;14.80;11.50;;;;;;;14.31;99.97;100786.61;108036;1277;62082;-81
2022/09/11 01:38:57;;;;;;;13.20;11.80;;;;;;;14.30;100.00;100787.84;108164;1276;74924;-81
2022/09/11 01:41:33;;;;;;;14.90;12.30;;;;;;;14.27;100.00;100789.59;108030;1276;71956;-81
2022/09/11 01:44:07;;;;;;;16.30;11.70;;;;;;;14.27;100.00;100796.02;108050;1276;73899;-81
2022/09/11 01:46:41;;;;;;;16.00;12.20;;;;;;;14.26;100.00;100797.75;107666;1277;60957;-81
2022/09/11 01:49:10;;;;;;;15.00;11.90;;;;;;;14.24;100.00;100795.08;108134;1276;60012;-81
2022/09/11 01:51:39;;;;;;;16.20;13.20;;;;;;;14.26;100.00;100802.23;107896;1276;75014;-81
2022/09/11 01:54:15;;;;;;;14.10;12.50;;;;;;;14.27;100.00;100805.39;108020;1276;72265;-81
2022/09/11 01:56:49;;;;;;;16.60;13.00;;;;;;;14.30;100.00;100805.83;107959;1276;73850;-81
2022/09/11 01:59:20;;;;;;;14.70;13.20;;;;;;;14.33;100.00;100806.46;108039;1277;62143;-81
2022/09/11 02:01:52;;;;;;;16.20;13.30;;;;;;;14.36;100.00;100810.91;107963;1277;61720;-80
2022/09/11 02:04:32;;;;;;;18.00;13.30;;;;;;;14.40;100.00;100811.06;108104;1277;74173;-80
2022/09/11 02:07:17;;;;;;;18.30;14.20;;;;;;;14.44;100.00;100810.94;108086;1277;70877;-81
2022/09/11 02:09:56;;;;;;;17.40;15.00;;;;;;;14.46;100.00;100812.80;107988;1276;72991;-80
2022/09/11 02:12:27;;;;;;;16.70;14.90;;;;;;;14.50;100.00;100814.23;107905;1278;63492;-80
2022/09/11 02:14:54;;;;;;;18.70;15.20;;;;;;;14.51;100.00;100812.75;108004;1277;60648;-80
2022/09/11 02:17:43;;;;;;;18.70;14.80;;;;;;;14.52;100.00;100809.42;107873;1277;73873;-80
2022/09/11 02:20:10;;;;;;;19.10;15.50;;;;;;;14.53;100.00;100812.26;108103;1276;73181;-80
2022/09/11 02:22:37;;;;;;;17.50;15.10;;;;;;;14.54;100.00;100811.91;107936;1274;72993;-80
2022/09/11 02:25:05;;;;;;;20.20;16.30;;;;;;;14.57;100.00;100813.63;107913;1278;63143;-80
2022/09/11 02:27:32;;;;;;;21.10;16.70;;;;;;;14.59;100.00;100820.79;108027;1277;61394;-80
2022/09/11 02:30:00;;;;;;;27.60;17.40;;;;;;;14.61;100.00;100823.29;107950;1277;74066;-80
2022/09/11 02:32:27;;;;;;;23.50;17.00;;;;;;;14.61;100.00;100823.30;107948;1276;72639;-80
2022/09/11 02:34:56;;;;;;;25.90;18.00;;;;;;;14.63;100.00;100821.87;108021;1277;73389;-80
2022/09/11 02:37:41;;;;;;;27.90;18.00;;;;;;;14.64;100.00;100823.06;108159;1275;61007;-80
2022/09/11 02:40:30;;;;;;;27.40;18.90;;;;;;;14.65;100.00;100831.33;108019;1277;61246;-80
2022/09/11 02:43:07;;;;;;;35.80;19.40;;;;;;;14.63;100.00;100834.69;107973;1276;73839;-81
2022/09/11 02:45:40;;;;;;;35.00;19.50;;;;;;;14.59;100.00;100843.04;108094;1276;71229;-80
2022/09/11 02:48:48;;;;;;;40.90;19.30;;;;;;;14.54;100.00;100842.55;108130;1276;72463;-80
2022/09/11 02:51:27;;;;;;;42.20;18.20;;;;;;;14.48;100.00;100849.73;107867;1276;62086;-80
2022/09/11 02:54:12;;;;;;;44.00;18.10;;;;;;;14.43;100.00;100846.34;107987;1277;60503;-80
2022/09/11 02:56:57;;;;;;;46.20;17.90;;;;;;;14.37;100.00;100844.86;108196;1276;75236;-80
2022/09/11 02:59:35;;;;;;;57.40;17.50;;;;;;;14.35;100.00;100849.24;108220;1276;70255;-80
2022/09/11 03:02:02;;;;;;;59.30;18.70;;;;;;;14.30;100.00;100850.65;108139;1276;72545;-80
2022/09/11 03:04:30;;;;;;;56.50;17.90;;;;;;;14.25;100.00;100856.23;108118;1277;61279;-80
2022/09/11 03:06:58;;;;;;;55.40;18.90;;;;;;;14.20;100.00;100851.86;107701;1278;60310;-80
2022/09/11 03:09:25;;;;;;;67.10;19.60;;;;;;;14.20;100.00;100858.66;108036;1277;75301;-80
2022/09/11 03:11:52;;;;;;;61.40;19.00;;;;;;;14.22;100.00;100862.79;107940;1278;71505;-80
2022/09/11 03:14:19;;;;;;;66.50;20.50;;;;;;;14.24;100.00;100869.70;107977;1276;73004;-80
2022/09/11 03:16:46;;;;;;;48.30;19.60;;;;;;;14.24;100.00;100878.23;107966;1276;62158;-80
2022/09/11 03:19:13;;;;;;;39.30;19.10;;;;;;;14.24;100.00;100876.44;107969;1276;60969;-80
2022/09/11 03:21:40;;;;;;;34.60;19.30;;;;;;;14.26;100.00;100881.75;108056;1276;76264;-80
2022/09/11 03:24:08;;;;;;;33.80;18.90;;;;;;;14.27;100.00;100879.91;108170;1276;70925;-80
2022/09/11 03:26:36;;;;;;;27.80;18.10;;;;;;;14.25;100.00;100879.27;107989;1278;71876;-80
2022/09/11 03:29:03;;;;;;;34.30;19.10;;;;;;;14.28;100.00;100877.89;108240;1276;61605;-80
2022/09/11 03:31:30;;;;;;;37.30;19.00;;;;;;;14.30;100.00;100878.77;108245;1275;60464;-80
2022/09/11 03:33:57;;;;;;;34.00;18.70;;;;;;;14.29;100.00;100877.73;108274;1275;75911;-80
2022/09/11 03:36:24;;;;;;;23.70;17.40;;;;;;;14.30;100.00;100882.01;108062;1277;71312;-80
2022/09/11 03:38:51;;;;;;;30.90;17.00;;;;;;;14.28;100.00;100885.13;107988;1276;72528;-80
2022/09/11 03:41:18;;;;;;;33.00;17.70;;;;;;;14.26;100.00;100887.87;108043;1276;64092;-80
2022/09/11 03:43:46;;;;;;;28.30;17.20;;;;;;;14.25;100.00;100891.23;108133;1277;60879;-80
2022/09/11 03:46:13;;;;;;;31.50;17.30;;;;;;;14.23;100.00;100893.75;107810;1278;75259;-80
2022/09/11 03:48:40;;;;;;;30.00;16.70;;;;;;;14.21;100.00;100897.80;108173;1276;71067;-80
2022/09/11 03:51:07;;;;;;;25.40;15.70;;;;;;;14.20;100.00;100900.66;108030;1277;73423;-80
2022/09/11 03:53:34;;;;;;;27.20;15.50;;;;;;;14.17;100.00;100900.52;108027;1277;62590;-80
2022/09/11 03:56:03;;;;;;;23.10;15.30;;;;;;;14.15;100.00;100901.11;107979;1278;60188;-80
2022/09/11 03:58:35;;;;;;;20.70;14.40;;;;;;;14.13;100.00;100904.02;108028;1277;74191;-80
2022/09/11 04:01:09;;;;;;;19.90;15.30;;;;;;;14.13;100.00;100906.48;107805;1278;71240;-80
2022/09/11 04:03:36;;;;;;;22.10;14.90;;;;;;;14.15;100.00;100892.45;108011;1277;72997;-81
2022/09/11 04:06:09;;;;;;;24.10;15.30;;;;;;;14.16;100.00;100893.16;108058;1276;62204;-81
2022/09/11 04:08:38;;;;;;;26.00;16.10;;;;;;;14.15;100.00;100896.19;107984;1277;60187;-81
2022/09/11 04:11:10;;;;;;;21.60;15.40;;;;;;;14.17;100.00;100896.73;107963;1276;75020;-80
2022/09/11 04:13:38;;;;;;;22.00;15.90;;;;;;;14.16;100.00;100896.12;107969;1277;70195;-81
2022/09/11 04:16:16;;;;;;;23.40;15.90;;;;;;;14.17;100.00;100894.27;107936;1278;73201;-81
2022/09/11 04:18:44;;;;;;;25.60;16.60;;;;;;;14.17;100.00;100894.80;107953;1277;62095;-80
2022/09/11 04:21:14;;;;;;;25.80;16.60;;;;;;;14.17;100.00;100892.34;107916;1276;59651;-81
2022/09/11 04:23:41;;;;;;;33.20;16.90;;;;;;;14.16;100.00;100893.61;108175;1276;74080;-80
2022/09/11 04:26:19;;;;;;;25.90;16.30;;;;;;;14.17;100.00;100893.16;108178;1276;70796;-81
2022/09/11 04:28:45;;;;;;;26.50;16.30;;;;;;;14.18;100.00;100895.36;107977;1276;73067;-81
2022/09/11 04:31:14;;;;;;;31.10;18.00;;;;;;;14.19;100.00;100899.66;108054;1276;63276;-81
2022/09/11 04:33:42;;;;;;;27.20;16.90;;;;;;;14.20;100.00;100902.05;107960;1277;60068;-81
2022/09/11 04:36:12;;;;;;;26.70;15.50;;;;;;;14.22;100.00;100900.02;108289;1275;74134;-81
2022/09/11 04:38:40;;;;;;;23.40;13.90;;;;;;;14.21;100.00;100904.05;108174;1276;70381;-80
2022/09/11 04:41:07;;;;;;;23.60;14.70;;;;;;;14.20;100.00;100909.61;107878;1276;72973;-81
2022/09/11 04:43:36;;;;;;;23.70;14.20;;;;;;;14.22;100.00;100912.13;108090;1276;62641;-81
2022/09/11 04:46:11;;;;;;;24.00;14.20;;;;;;;14.26;100.00;100911.80;107864;1276;61533;-80
2022/09/11 04:48:51;;;;;;;22.00;13.80;;;;;;;14.32;100.00;100915.73;108216;1276;74198;-80
2022/09/11 04:51:22;;;;;;;23.70;13.80;;;;;;;14.36;100.00;100915.93;108075;1276;71229;-80
2022/09/11 04:53:56;;;;;;;24.70;14.20;;;;;;;14.40;100.00;100915.95;108157;1276;71784;-80
2022/09/11 04:56:28;;;;;;;23.90;13.40;;;;;;;14.43;100.00;100916.67;108055;1276;61608;-80
2022/09/11 04:59:00;;;;;;;23.20;13.70;;;;;;;14.46;100.00;100919.90;108058;1276;61924;-79
2022/09/11 05:01:29;;;;;;;24.50;14.00;;;;;;;14.48;100.00;100917.36;107953;1276;73861;-78
2022/09/11 05:03:56;;;;;;;24.60;13.70;;;;;;;14.51;100.00;100918.29;108068;1277;71296;-80
2022/09/11 05:06:23;;;;;;;25.10;13.90;;;;;;;14.53;100.00;100925.29;108170;1276;74052;-80
2022/09/11 05:08:50;;;;;;;24.50;14.50;;;;;;;14.57;100.00;100926.95;108130;1276;62323;-80
2022/09/11 05:11:19;;;;;;;23.60;13.80;;;;;;;14.60;100.00;100925.60;108254;1276;60535;-80
2022/09/11 05:13:46;;;;;;;24.00;13.30;;;;;;;14.63;100.00;100926.38;108264;1275;73822;-79
2022/09/11 05:16:15;;;;;;;25.50;14.80;;;;;;;14.62;100.00;100933.71;108080;1277;71251;-80
2022/09/11 05:18:47;;;;;;;25.90;15.30;;;;;;;14.62;100.00;100934.86;107958;1276;72949;-79
2022/09/11 05:21:15;;;;;;;25.00;14.40;;;;;;;14.62;100.00;100936.46;107980;1278;62025;-80
2022/09/11 05:23:46;;;;;;;24.10;13.90;;;;;;;14.58;100.00;100939.84;107848;1276;61724;-80
2022/09/11 05:26:16;;;;;;;26.70;15.40;;;;;;;14.50;100.00;100946.98;108300;1276;75153;-79
2022/09/11 05:28:42;;;;;;;27.40;15.60;;;;;;;14.46;100.00;100949.30;108212;1276;70579;-79
2022/09/11 05:31:11;;;;;;;25.70;14.90;;;;;;;14.45;100.00;100953.98;107984;1276;73764;-80
2022/09/11 05:33:39;;;;;;;26.60;14.60;;;;;;;14.44;100.00;100954.54;107856;1278;63763;-80
2022/09/11 05:36:10;;;;;;;26.00;14.50;;;;;;;14.42;100.00;100960.98;108031;1277;60336;-80
2022/09/11 05:38:37;;;;;;;24.30;13.40;;;;;;;14.38;100.00;100964.42;108130;1276;75087;-80
2022/09/11 05:41:10;;;;;;;31.80;18.10;;;;;;;14.31;100.00;100965.04;108014;1277;71532;-80
2022/09/11 05:43:37;;;;;;;25.40;14.10;;;;;;;14.29;100.00;100970.69;107964;1276;74177;-80
2022/09/11 05:46:13;;;;;;;25.00;14.30;;;;;;;14.30;100.00;100973.23;107781;1276;63951;-80
2022/09/11 05:48:40;;;;;;;28.60;14.10;;;;;;;14.31;100.00;100976.86;107852;1276;61291;-80
2022/09/11 05:51:11;;;;;;;24.20;13.90;;;;;;;14.32;100.00;100978.80;108122;1276;73884;-79
2022/09/11 05:53:39;;;;;;;26.20;14.30;;;;;;;14.32;100.00;100985.11;108271;1276;71261;-79
2022/09/11 05:56:14;;;;;;;26.40;12.90;;;;;;;14.31;100.00;100985.84;107952;1278;74795;-79
2022/09/11 05:58:42;;;;;;;25.10;14.00;;;;;;;14.33;100.00;100989.89;108039;1277;63555;-79
2022/09/11 06:01:21;;;;;;;28.40;14.10;;;;;;;14.37;100.00;100992.27;108017;1276;61738;-80
2022/09/11 06:03:48;;;;;;;25.50;13.20;;;;;;;14.42;100.00;100995.52;107976;1278;74649;-80
2022/09/11 06:06:17;;;;;;;28.40;15.00;;;;;;;14.47;100.00;100997.39;108042;1276;72365;-80
2022/09/11 06:08:45;;;;;;;20.50;11.90;;;;;;;14.48;100.00;101002.90;108006;1276;74244;-80
2022/09/11 06:11:14;;;;;;;21.90;11.90;;;;;;;14.47;100.00;100997.44;107977;1278;61314;-80
2022/09/11 06:13:42;;;;;;;23.10;12.30;;;;;;;14.44;100.00;101005.59;108124;1276;60679;-80
2022/09/11 06:16:11;;;;;;;25.80;13.40;;;;;;;14.42;100.00;101011.49;107716;1277;75178;-80
2022/09/11 06:18:43;;;;;;;23.20;13.20;;;;;;;14.44;100.00;101014.16;107965;1276;71535;-79
2022/09/11 06:21:17;;;;;;;25.50;13.10;;;;;;;14.46;100.00;101019.40;108122;1277;72653;-80
2022/09/11 06:23:49;;;;;;;24.80;12.80;;;;;;;14.48;100.00;101022.34;107955;1276;63601;-79
2022/09/11 06:26:18;;;;;;;24.30;12.60;;;;;;;14.53;100.00;101025.30;108204;1276;61315;-80
2022/09/11 06:28:46;;;;;;;23.50;12.30;;;;;;;14.57;100.00;101031.19;108223;1276;73803;-80
2022/09/11 06:31:15;;;;;;;23.20;12.60;;;;;;;14.59;100.00;101035.72;108049;1277;71581;-79
2022/09/11 06:33:43;;;;;;;24.60;12.30;;;;;;;14.61;100.00;101036.73;106732;1278;1674745;-79
2022/09/11 06:36:14;;;;;;;29.00;14.40;;;;;;;14.62;100.00;101043.72;108215;1276;63569;-79
2022/09/11 06:38:41;;;;;;;29.30;15.20;;;;;;;14.65;100.00;101048.34;107950;1277;61743;-79
2022/09/11 06:41:12;;;;;;;30.10;16.50;;;;;;;14.71;100.00;101051.79;108175;1276;74206;-80
2022/09/11 06:43:41;;;;;;;31.30;16.70;;;;;;;14.74;100.00;101060.44;107818;1277;71413;-80
2022/09/11 06:46:11;;;;;;;31.20;16.40;;;;;;;14.77;100.00;101058.09;107940;1276;72304;-80
2022/09/11 06:48:39;;;;;;;31.60;18.40;;;;;;;14.79;100.00;101056.55;108129;1276;62609;-81
2022/09/11 06:51:11;;;;;;;31.70;18.40;;;;;;;14.82;100.00;101055.09;108140;1276;60809;-80
2022/09/11 06:53:39;;;;;;;33.20;19.40;;;;;;;14.85;100.00;101052.40;108120;1278;73979;-80
2022/09/11 06:56:12;;;;;;;33.50;19.60;;;;;;;14.92;100.00;101051.38;108107;1277;71350;-80
2022/09/11 06:58:42;;;;;;;33.70;20.50;;;;;;;15.00;100.00;101053.00;108069;1277;73957;-81
2022/09/11 07:01:12;;;;;;;36.30;20.40;;;;;;;15.08;100.00;101044.91;108072;1277;62543;-80
2022/09/11 07:03:44;;;;;;;35.60;20.10;;;;;;;15.18;100.00;101042.73;107966;1277;59807;-80
2022/09/11 07:06:19;;;;;;;32.90;20.00;;;;;;;15.28;100.00;101042.15;107862;1277;74192;-81
2022/09/11 07:08:59;;;;;;;35.00;20.10;;;;;;;15.37;100.00;101047.38;107879;1277;71452;-81
2022/09/11 07:11:28;;;;;;;34.60;20.50;;;;;;;15.50;99.95;101050.97;107999;1278;74067;-81
2022/09/11 07:13:54;;;;;;;29.90;20.60;;;;;;;15.59;99.77;101053.02;108018;1276;63918;-80
2022/09/11 07:16:21;;;;;;;33.00;21.20;;;;;;;15.66;99.15;101051.16;107907;1278;60352;-80
2022/09/11 07:18:48;;;;;;;30.00;20.80;;;;;;;15.76;98.73;101048.68;107839;1279;73257;-81
2022/09/11 07:21:20;;;;;;;28.80;20.40;;;;;;;15.84;97.96;101054.23;108170;1276;72674;-81
2022/09/11 07:23:48;;;;;;;29.00;20.70;;;;;;;15.92;97.71;101054.63;107985;1278;73986;-81
2022/09/11 07:26:16;;;;;;;29.50;20.10;;;;;;;16.03;97.75;101055.27;107965;1277;61700;-81
2022/09/11 07:28:43;;;;;;;29.40;18.80;;;;;;;16.12;96.83;101058.39;107960;1277;60583;-81
2022/09/11 07:31:13;;;;;;;27.40;19.10;;;;;;;16.18;96.08;101060.48;107919;1277;75015;-81
2022/09/11 07:33:48;;;;;;;28.20;20.00;;;;;;;16.21;95.31;101066.63;108036;1277;72306;-81
2022/09/11 07:36:17;;;;;;;27.30;19.30;;;;;;;16.20;94.52;101067.00;108001;1276;72877;-81
2022/09/11 07:38:46;;;;;;;26.40;19.40;;;;;;;16.18;94.15;101067.90;107973;1277;60288;-81
2022/09/11 07:41:18;;;;;;;27.40;19.50;;;;;;;16.18;93.91;101069.55;107915;1277;59715;-80
2022/09/11 07:43:45;;;;;;;25.40;19.50;;;;;;;16.18;94.02;101073.34;107937;1277;74044;-80
2022/09/11 07:46:13;;;;;;;27.10;19.20;;;;;;;16.19;93.83;101071.57;107940;1277;72345;-80
2022/09/11 07:48:41;;;;;;;25.00;18.60;;;;;;;16.21;93.86;101071.44;108162;1277;73929;-80
2022/09/11 07:51:14;;;;;;;27.70;20.00;;;;;;;16.23;93.92;101066.35;107794;1277;63693;-81
2022/09/11 07:53:49;;;;;;;26.70;19.60;;;;;;;16.30;94.09;101068.46;108158;1277;60246;-80
2022/09/11 07:56:22;;;;;;;26.60;19.20;;;;;;;16.37;93.52;101073.33;107809;1277;74150;-80
2022/09/11 07:58:51;;;;;;;25.30;19.40;;;;;;;16.41;93.09;101072.42;107948;1277;71178;-80
2022/09/11 08:01:20;;;;;;;27.00;19.30;;;;;;;16.44;92.59;101075.77;108175;1277;73739;-80
2022/09/11 08:03:48;;;;;;;26.10;19.10;;;;;;;16.46;92.38;101081.46;107835;1278;61340;-81
2022/09/11 08:06:17;;;;;;;26.40;19.30;;;;;;;16.48;91.89;101082.28;108029;1277;60537;-80
2022/09/11 08:08:52;;;;;;;23.20;17.50;;;;;;;16.50;91.56;101082.89;108216;1277;73321;-80
2022/09/11 08:11:20;;;;;;;24.60;18.10;;;;;;;16.54;91.62;101086.00;108022;1277;72070;-80
2022/09/11 08:13:49;;;;;;;24.50;18.80;;;;;;;16.56;91.40;101093.24;108143;1277;72768;-80
2022/09/11 08:16:21;;;;;;;25.80;18.30;;;;;;;16.56;91.29;101094.86;107851;1277;62043;-80
2022/09/11 08:18:48;;;;;;;25.60;19.00;;;;;;;16.54;91.13;101098.69;107908;1277;61339;-80
2022/09/11 08:21:15;;;;;;;25.40;18.40;;;;;;;16.52;90.97;101101.39;108186;1276;73469;-80
2022/09/11 08:23:43;;;;;;;24.30;18.50;;;;;;;16.50;90.67;101106.14;107954;1277;71297;-80
2022/09/11 08:26:16;;;;;;;26.30;18.40;;;;;;;16.53;91.35;101111.29;108107;1276;73749;-81
2022/09/11 08:28:43;;;;;;;25.00;18.30;;;;;;;16.56;90.90;101112.23;108206;1277;62918;-80
2022/09/11 08:31:11;;;;;;;25.00;18.50;;;;;;;16.54;90.61;101114.39;107975;1277;61637;-80
2022/09/11 08:33:39;;;;;;;24.50;18.00;;;;;;;16.56;90.85;101115.75;107964;1277;74887;-80
2022/09/11 08:36:12;;;;;;;23.30;18.10;;;;;;;16.61;90.59;101118.19;108127;1277;71633;-81
2022/09/11 08:38:41;;;;;;;23.50;17.80;;;;;;;16.67;90.54;101122.98;107865;1269;72970;-84
2022/09/11 08:41:29;;;;;;;25.40;18.10;;;;;;;16.77;90.23;101126.61;107781;1271;64388;-82
2022/09/11 08:44:00;;;;;;;24.10;17.80;;;;;;;16.91;90.12;101129.45;108186;1267;60450;-84
2022/09/11 08:46:34;;;;;;;24.40;17.50;;;;;;;17.06;89.62;101126.02;107982;1269;74099;-84
2022/09/11 08:51:30;;;;;;;22.60;17.30;;;;;;;17.54;88.84;101115.75;108114;1271;73617;-78
2022/09/11 08:54:00;;;;;;;23.60;16.60;;;;;;;17.83;88.62;101120.09;108233;1275;63503;-78
2022/09/11 08:56:29;;;;;;;20.70;16.00;;;;;;;18.13;88.10;101125.16;108042;1276;61651;-78
2022/09/11 08:59:17;;;;;;;20.10;14.60;;;;;;;18.37;86.23;101127.73;107978;1277;74215;-78
2022/09/11 09:02:17;;;;;;;20.10;15.40;;;;;;;18.50;83.36;101124.67;108229;1276;71591;-78
2022/09/11 09:05:07;;;;;;;17.40;13.60;;;;;;;18.63;82.49;101131.61;108166;1274;74076;-78
2022/09/11 09:07:53;;;;;;;16.00;12.70;;;;;;;18.76;81.32;101130.85;108149;1275;61283;-78
2022/09/11 09:10:37;;;;;;;19.40;15.50;;;;;;;18.87;80.63;101135.91;108224;1274;61926;-78
2022/09/11 09:13:28;;;;;;;16.70;13.90;;;;;;;18.96;79.77;101137.34;108256;1274;76838;-78
2022/09/11 09:16:24;;;;;;;16.90;14.30;;;;;;;19.06;79.68;101141.10;108258;1274;73120;-78
2022/09/11 09:19:28;;;;;;;18.70;14.40;;;;;;;19.15;79.45;101140.64;108260;1274;72721;-77
2022/09/11 09:22:02;;;;;;;16.90;13.50;;;;;;;19.17;78.71;101145.13;108272;1274;63701;-78
2022/09/11 09:24:38;;;;;;;15.70;11.80;;;;;;;19.14;78.03;101141.84;108220;1276;61782;-78
2022/09/11 09:27:05;;;;;;;17.60;12.60;;;;;;;19.09;77.00;101141.03;108286;1274;74181;-78
2022/09/11 09:29:37;;;;;;;17.10;12.70;;;;;;;19.07;77.39;101143.90;108202;1275;70624;-77
2022/09/11 09:32:12;;;;;;;18.20;13.40;;;;;;;18.99;76.97;101150.42;107932;1275;73854;-78
2022/09/11 09:34:41;;;;;;;19.40;14.10;;;;;;;18.86;77.05;101150.89;108262;1274;62225;-77
2022/09/11 09:37:16;;;;;;;17.80;13.70;;;;;;;18.73;77.12;101153.23;107937;1276;60463;-77
2022/09/11 09:39:44;;;;;;;18.50;12.80;;;;;;;18.66;78.06;101154.45;107987;1276;73889;-77
2022/09/11 09:42:44;;;;;;;17.50;13.70;;;;;;;18.63;78.14;101157.02;108185;1275;71383;-77
2022/09/11 09:45:36;;;;;;;18.50;13.20;;;;;;;18.48;77.63;101160.85;108047;1277;73694;-78
2022/09/11 09:48:05;;;;;;;18.60;13.50;;;;;;;18.38;78.31;101159.16;108135;1276;62439;-78
2022/09/11 09:50:34;;;;;;;17.40;13.50;;;;;;;18.31;78.42;101160.27;107960;1278;60817;-77
2022/09/11 09:53:12;;;;;;;16.00;12.10;;;;;;;18.30;78.55;101159.13;107835;1276;75208;-78
2022/09/11 09:55:39;;;;;;;15.90;12.40;;;;;;;18.29;78.22;101156.93;108150;1276;72579;-78
2022/09/11 09:58:06;;;;;;;16.00;11.60;;;;;;;18.32;78.06;101154.19;108130;1276;71715;-78
2022/09/11 10:00:36;;;;;;;16.00;12.60;;;;;;;18.42;78.59;101154.80;107868;1277;62018;-77
2022/09/11 10:03:21;;;;;;;15.60;12.00;;;;;;;18.50;78.11;101153.52;107822;1277;61478;-78
2022/09/11 10:05:52;;;;;;;17.70;11.80;;;;;;;18.60;78.76;101152.83;107880;1277;72949;-77
2022/09/11 10:08:33;;;;;;;14.50;11.10;;;;;;;18.72;77.52;101154.89;107896;1278;72387;-77
2022/09/11 10:11:01;;;;;;;13.00;10.40;;;;;;;18.85;77.44;101160.45;107942;1277;73581;-77
2022/09/11 10:13:31;;;;;;;15.50;10.60;;;;;;;18.98;76.68;101159.77;107971;1277;63146;-79
2022/09/11 10:16:00;;;;;;;12.60;10.00;;;;;;;19.03;75.55;101159.61;108161;1276;61123;-80
2022/09/11 10:18:36;;;;;;;12.50;10.10;;;;;;;19.05;75.04;101159.84;107917;1278;74320;-80
2022/09/11 10:21:12;;;;;;;12.70;9.60;;;;;;;19.05;74.72;101163.33;107962;1277;71317;-80
2022/09/11 10:23:46;;;;;;;12.40;9.60;;;;;;;19.08;74.08;101163.63;108218;1277;73805;-80
2022/09/11 10:26:24;;;;;;;11.00;8.80;;;;;;;19.05;73.93;101165.42;107945;1277;63555;-80
2022/09/11 10:28:54;;;;;;;11.40;8.40;;;;;;;19.04;74.06;101160.23;108209;1276;59411;-80
2022/09/11 10:31:21;;;;;;;10.70;8.50;;;;;;;19.05;74.13;101163.98;108034;1278;75005;-80
2022/09/11 10:33:55;;;;;;;10.40;8.30;;;;;;;19.09;74.32;101166.35;107994;1278;72438;-80
2022/09/11 10:36:26;;;;;;;11.50;8.90;;;;;;;19.14;74.30;101164.31;108195;1276;73620;-80
2022/09/11 10:38:58;;;;;;;12.80;9.10;;;;;;;19.17;74.03;101161.94;108112;1276;61181;-79
2022/09/11 10:41:33;;;;;;;11.50;8.90;;;;;;;19.27;74.34;101161.80;108144;1276;60566;-79
2022/09/11 10:44:02;;;;;;;12.10;9.20;;;;;;;19.37;73.61;101161.63;107989;1276;76169;-80
2022/09/11 10:46:31;;;;;;;11.80;9.40;;;;;;;19.41;72.84;101164.06;108289;1274;72343;-80
2022/09/11 10:49:07;;;;;;;12.00;9.10;;;;;;;19.42;72.75;101169.52;108280;1274;73028;-79
2022/09/11 10:51:40;;;;;;;11.90;9.50;;;;;;;19.39;72.32;101170.79;108165;1274;63454;-79
2022/09/11 10:54:15;;;;;;;12.90;9.60;;;;;;;19.46;72.98;101171.05;108225;1274;60623;-77
2022/09/11 10:56:57;;;;;;;10.70;8.50;;;;;;;19.59;73.34;101174.03;108117;1274;75394;-77
2022/09/11 10:59:34;;;;;;;10.30;7.70;;;;;;;19.77;72.53;101174.54;108127;1275;71589;-77
2022/09/11 11:02:02;;;;;;;9.90;7.10;;;;;;;19.88;70.90;101177.77;108156;1274;74895;-77
2022/09/11 11:04:31;;;;;;;10.00;7.80;;;;;;;19.93;69.85;101177.91;107928;1278;62398;-78
2022/09/11 11:07:00;;;;;;;11.20;8.10;;;;;;;20.02;69.98;101174.60;108207;1274;63850;-80
2022/09/11 11:09:39;;;;;;;9.30;7.50;;;;;;;20.14;69.71;101172.68;108240;1277;72969;-80
2022/09/11 11:12:30;;;;;;;10.30;7.30;;;;;;;20.16;69.38;101173.64;108036;1277;71538;-80
2022/09/11 11:15:23;;;;;;;9.70;7.80;;;;;;;20.12;68.88;101174.68;108221;1274;74687;-80
2022/09/11 11:18:24;;;;;;;9.10;6.40;;;;;;;20.08;68.27;101174.95;108143;1277;63754;-80
2022/09/11 11:21:20;;;;;;;10.00;7.90;;;;;;;19.99;68.35;101172.81;108100;1274;60203;-80
2022/09/11 11:23:55;;;;;;;10.70;7.80;;;;;;;20.02;68.69;101174.19;108339;1274;73759;-80
2022/09/11 11:26:35;;;;;;;10.70;7.80;;;;;;;20.11;68.52;101175.58;108183;1274;71831;-80